sensor_id;sensor_type;location;lat;lon;timestamp;P1;durP1;ratioP1;P2;durP2;ratioP2
69900;SDS011;57183;50.930;5.406;2022-09-03T00:07:36;2.10;;;1.45;;
69900;SDS011;57183;50.930;5.406;2022-09-03T00:10:17;2.13;;;1.85;;
69900;SDS011;57183;50.930;5.406;2022-09-03T00:12:53;3.42;;;1.40;;
69900;SDS011;57183;50.930;5.406;2022-09-03T00:15:24;4.07;;;1.42;;
69900;SDS011;57183;50.930;5.406;2022-09-03T00:17:52;4.50;;;1.50;;
69900;SDS011;57183;50.930;5.406;2022-09-03T00:23:13;5.70;;;1.70;;
69900;SDS011;57183;50.930;5.406;2022-09-03T00:25:58;1.55;;;1.30;;
69900;SDS011;57183;50.930;5.406;2022-09-03T00:28:50;1.42;;;1.33;;
69900;SDS011;57183;50.930;5.406;2022-09-03T00:31:31;6.70;;;1.98;;
69900;SDS011;57183;50.930;5.406;2022-09-03T00:34:11;5.03;;;1.50;;
69900;SDS011;57183;50.930;5.406;2022-09-03T00:36:45;7.43;;;1.55;;
69900;SDS011;57183;50.930;5.406;2022-09-03T00:39:12;5.43;;;1.48;;
69900;SDS011;57183;50.930;5.406;2022-09-03T00:41:47;5.00;;;1.83;;
69900;SDS011;57183;50.930;5.406;2022-09-03T00:47:40;4.28;;;1.70;;
69900;SDS011;57183;50.930;5.406;2022-09-03T00:53:05;6.63;;;1.67;;
69900;SDS011;57183;50.930;5.406;2022-09-03T01:01:04;3.58;;;1.40;;
69900;SDS011;57183;50.930;5.406;2022-09-03T01:06:39;3.63;;;1.88;;
69900;SDS011;57183;50.930;5.406;2022-09-03T01:09:19;2.72;;;1.58;;
69900;SDS011;57183;50.930;5.406;2022-09-03T01:12:05;3.15;;;1.20;;
69900;SDS011;57183;50.930;5.406;2022-09-03T01:30:17;2.17;;;1.33;;
69900;SDS011;57183;50.930;5.406;2022-09-03T01:32:37;1.85;;;1.30;;
69900;SDS011;57183;50.930;5.406;2022-09-03T01:38:04;2.30;;;1.40;;
69900;SDS011;57183;50.930;5.406;2022-09-03T01:46:38;3.63;;;1.83;;
69900;SDS011;57183;50.930;5.406;2022-09-03T01:49:10;4.85;;;1.58;;
69900;SDS011;57183;50.930;5.406;2022-09-03T01:51:56;3.00;;;1.67;;
69900;SDS011;57183;50.930;5.406;2022-09-03T01:58:25;2.88;;;1.80;;
69900;SDS011;57183;50.930;5.406;2022-09-03T02:00:22;6.07;;;2.00;;
69900;SDS011;57183;50.930;5.406;2022-09-03T02:02:50;4.03;;;1.80;;
69900;SDS011;57183;50.930;5.406;2022-09-03T02:05:24;3.60;;;1.70;;
69900;SDS011;57183;50.930;5.406;2022-09-03T02:07:59;3.42;;;1.55;;
69900;SDS011;57183;50.930;5.406;2022-09-03T02:10:39;3.65;;;2.10;;
69900;SDS011;57183;50.930;5.406;2022-09-03T02:13:12;6.57;;;2.03;;
69900;SDS011;57183;50.930;5.406;2022-09-03T02:15:43;8.25;;;1.58;;
69900;SDS011;57183;50.930;5.406;2022-09-03T02:18:14;8.13;;;2.00;;
69900;SDS011;57183;50.930;5.406;2022-09-03T02:20:43;4.28;;;1.75;;
69900;SDS011;57183;50.930;5.406;2022-09-03T02:23:10;7.70;;;1.98;;
69900;SDS011;57183;50.930;5.406;2022-09-03T02:25:42;3.25;;;1.42;;
69900;SDS011;57183;50.930;5.406;2022-09-03T02:28:10;3.78;;;2.03;;
69900;SDS011;57183;50.930;5.406;2022-09-03T02:30:38;6.45;;;1.90;;
69900;SDS011;57183;50.930;5.406;2022-09-03T02:33:04;8.43;;;1.90;;
69900;SDS011;57183;50.930;5.406;2022-09-03T02:35:30;4.72;;;2.42;;
69900;SDS011;57183;50.930;5.406;2022-09-03T02:37:56;14.15;;;2.50;;
69900;SDS011;57183;50.930;5.406;2022-09-03T02:40:21;5.85;;;1.50;;
69900;SDS011;57183;50.930;5.406;2022-09-03T02:42:47;2.25;;;1.13;;
69900;SDS011;57183;50.930;5.406;2022-09-03T02:47:55;2.92;;;1.90;;
69900;SDS011;57183;50.930;5.406;2022-09-03T02:50:23;3.60;;;1.60;;
69900;SDS011;57183;50.930;5.406;2022-09-03T02:52:50;2.05;;;1.35;;
69900;SDS011;57183;50.930;5.406;2022-09-03T02:55:16;1.73;;;1.40;;
69900;SDS011;57183;50.930;5.406;2022-09-03T02:57:43;2.95;;;1.85;;
69900;SDS011;57183;50.930;5.406;2022-09-03T03:00:09;2.58;;;1.75;;
69900;SDS011;57183;50.930;5.406;2022-09-03T03:02:36;1.70;;;1.60;;
69900;SDS011;57183;50.930;5.406;2022-09-03T03:05:02;3.67;;;2.47;;
69900;SDS011;57183;50.930;5.406;2022-09-03T03:07:32;4.55;;;1.60;;
69900;SDS011;57183;50.930;5.406;2022-09-03T03:10:03;3.70;;;1.33;;
69900;SDS011;57183;50.930;5.406;2022-09-03T03:12:29;1.30;;;1.20;;
69900;SDS011;57183;50.930;5.406;2022-09-03T03:14:55;3.45;;;2.00;;
69900;SDS011;57183;50.930;5.406;2022-09-03T03:17:21;1.70;;;1.52;;
69900;SDS011;57183;50.930;5.406;2022-09-03T03:19:46;2.75;;;1.75;;
69900;SDS011;57183;50.930;5.406;2022-09-03T03:22:13;4.18;;;1.83;;
69900;SDS011;57183;50.930;5.406;2022-09-03T03:24:38;4.07;;;1.95;;
69900;SDS011;57183;50.930;5.406;2022-09-03T03:27:04;1.92;;;1.63;;
69900;SDS011;57183;50.930;5.406;2022-09-03T03:29:32;1.90;;;1.80;;
69900;SDS011;57183;50.930;5.406;2022-09-03T03:31:58;3.15;;;1.65;;
69900;SDS011;57183;50.930;5.406;2022-09-03T03:34:23;3.35;;;1.80;;
69900;SDS011;57183;50.930;5.406;2022-09-03T03:36:49;6.68;;;1.60;;
69900;SDS011;57183;50.930;5.406;2022-09-03T03:39:15;1.90;;;1.80;;
69900;SDS011;57183;50.930;5.406;2022-09-03T03:41:40;3.88;;;1.55;;
69900;SDS011;57183;50.930;5.406;2022-09-03T03:44:06;3.95;;;1.88;;
69900;SDS011;57183;50.930;5.406;2022-09-03T03:46:34;2.80;;;1.75;;
69900;SDS011;57183;50.930;5.406;2022-09-03T03:49:05;2.47;;;1.50;;
69900;SDS011;57183;50.930;5.406;2022-09-03T03:51:32;2.03;;;1.50;;
69900;SDS011;57183;50.930;5.406;2022-09-03T03:53:59;2.88;;;1.40;;
69900;SDS011;57183;50.930;5.406;2022-09-03T03:56:25;3.08;;;1.98;;
69900;SDS011;57183;50.930;5.406;2022-09-03T03:58:51;3.38;;;2.00;;
69900;SDS011;57183;50.930;5.406;2022-09-03T04:01:19;2.70;;;1.65;;
69900;SDS011;57183;50.930;5.406;2022-09-03T04:03:46;3.33;;;1.90;;
69900;SDS011;57183;50.930;5.406;2022-09-03T04:06:13;6.70;;;1.50;;
69900;SDS011;57183;50.930;5.406;2022-09-03T04:08:40;6.18;;;1.90;;
69900;SDS011;57183;50.930;5.406;2022-09-03T04:11:08;6.40;;;1.80;;
69900;SDS011;57183;50.930;5.406;2022-09-03T04:13:36;5.10;;;1.90;;
69900;SDS011;57183;50.930;5.406;2022-09-03T04:16:04;2.53;;;2.00;;
69900;SDS011;57183;50.930;5.406;2022-09-03T04:18:34;4.22;;;1.55;;
69900;SDS011;57183;50.930;5.406;2022-09-03T04:21:05;2.33;;;1.73;;
69900;SDS011;57183;50.930;5.406;2022-09-03T04:23:33;4.45;;;1.92;;
69900;SDS011;57183;50.930;5.406;2022-09-03T04:26:00;4.53;;;1.48;;
69900;SDS011;57183;50.930;5.406;2022-09-03T04:28:26;9.40;;;2.22;;
69900;SDS011;57183;50.930;5.406;2022-09-03T04:30:53;10.38;;;1.85;;
69900;SDS011;57183;50.930;5.406;2022-09-03T04:33:19;2.58;;;1.52;;
69900;SDS011;57183;50.930;5.406;2022-09-03T04:35:45;2.38;;;1.75;;
69900;SDS011;57183;50.930;5.406;2022-09-03T04:38:10;2.00;;;1.58;;
69900;SDS011;57183;50.930;5.406;2022-09-03T04:40:36;1.80;;;1.50;;
69900;SDS011;57183;50.930;5.406;2022-09-03T04:43:02;4.03;;;2.17;;
69900;SDS011;57183;50.930;5.406;2022-09-03T04:45:28;5.18;;;2.05;;
69900;SDS011;57183;50.930;5.406;2022-09-03T04:47:55;3.33;;;1.63;;
69900;SDS011;57183;50.930;5.406;2022-09-03T04:50:22;4.18;;;1.92;;
69900;SDS011;57183;50.930;5.406;2022-09-03T04:52:47;3.20;;;1.77;;
69900;SDS011;57183;50.930;5.406;2022-09-03T04:55:13;2.55;;;2.10;;
69900;SDS011;57183;50.930;5.406;2022-09-03T04:57:39;4.35;;;2.03;;
69900;SDS011;57183;50.930;5.406;2022-09-03T05:00:07;2.78;;;1.77;;
69900;SDS011;57183;50.930;5.406;2022-09-03T05:02:35;2.60;;;1.55;;
69900;SDS011;57183;50.930;5.406;2022-09-03T05:05:01;4.53;;;2.03;;
69900;SDS011;57183;50.930;5.406;2022-09-03T05:07:29;2.88;;;1.73;;
69900;SDS011;57183;50.930;5.406;2022-09-03T05:10:03;3.10;;;1.40;;
69900;SDS011;57183;50.930;5.406;2022-09-03T05:12:31;2.60;;;2.00;;
69900;SDS011;57183;50.930;5.406;2022-09-03T05:14:57;3.15;;;1.50;;
69900;SDS011;57183;50.930;5.406;2022-09-03T05:17:24;3.95;;;1.80;;
69900;SDS011;57183;50.930;5.406;2022-09-03T05:19:50;3.47;;;1.80;;
69900;SDS011;57183;50.930;5.406;2022-09-03T05:22:17;3.95;;;1.73;;
69900;SDS011;57183;50.930;5.406;2022-09-03T05:24:48;3.00;;;1.60;;
69900;SDS011;57183;50.930;5.406;2022-09-03T05:27:14;3.08;;;1.98;;
69900;SDS011;57183;50.930;5.406;2022-09-03T05:29:44;6.25;;;1.83;;
69900;SDS011;57183;50.930;5.406;2022-09-03T05:32:10;3.33;;;1.88;;
69900;SDS011;57183;50.930;5.406;2022-09-03T05:34:37;2.53;;;1.88;;
69900;SDS011;57183;50.930;5.406;2022-09-03T05:37:03;2.10;;;1.70;;
69900;SDS011;57183;50.930;5.406;2022-09-03T05:39:29;2.92;;;2.00;;
69900;SDS011;57183;50.930;5.406;2022-09-03T05:41:55;3.97;;;2.03;;
69900;SDS011;57183;50.930;5.406;2022-09-03T05:44:20;3.08;;;1.80;;
69900;SDS011;57183;50.930;5.406;2022-09-03T05:46:47;4.90;;;2.13;;
69900;SDS011;57183;50.930;5.406;2022-09-03T05:49:14;8.02;;;2.35;;
69900;SDS011;57183;50.930;5.406;2022-09-03T05:51:39;4.95;;;2.03;;
69900;SDS011;57183;50.930;5.406;2022-09-03T05:54:06;7.03;;;2.13;;
69900;SDS011;57183;50.930;5.406;2022-09-03T05:56:35;2.60;;;1.80;;
69900;SDS011;57183;50.930;5.406;2022-09-03T05:59:03;4.80;;;2.17;;
69900;SDS011;57183;50.930;5.406;2022-09-03T06:01:34;4.47;;;2.35;;
69900;SDS011;57183;50.930;5.406;2022-09-03T06:04:02;4.00;;;1.50;;
69900;SDS011;57183;50.930;5.406;2022-09-03T06:06:30;2.20;;;2.00;;
69900;SDS011;57183;50.930;5.406;2022-09-03T06:08:58;3.35;;;1.80;;
69900;SDS011;57183;50.930;5.406;2022-09-03T06:11:26;4.05;;;2.10;;
69900;SDS011;57183;50.930;5.406;2022-09-03T06:13:54;5.15;;;2.78;;
69900;SDS011;57183;50.930;5.406;2022-09-03T06:16:25;7.50;;;2.40;;
69900;SDS011;57183;50.930;5.406;2022-09-03T06:18:51;2.97;;;2.22;;
69900;SDS011;57183;50.930;5.406;2022-09-03T06:21:18;2.55;;;2.20;;
69900;SDS011;57183;50.930;5.406;2022-09-03T06:23:48;12.18;;;2.63;;
69900;SDS011;57183;50.930;5.406;2022-09-03T06:26:16;9.77;;;2.58;;
69900;SDS011;57183;50.930;5.406;2022-09-03T06:28:42;8.18;;;2.15;;
69900;SDS011;57183;50.930;5.406;2022-09-03T06:31:09;3.95;;;2.80;;
69900;SDS011;57183;50.930;5.406;2022-09-03T06:33:39;3.53;;;2.50;;
69900;SDS011;57183;50.930;5.406;2022-09-03T06:36:08;2.85;;;2.13;;
69900;SDS011;57183;50.930;5.406;2022-09-03T06:38:36;7.38;;;2.20;;
69900;SDS011;57183;50.930;5.406;2022-09-03T06:41:07;11.10;;;2.10;;
69900;SDS011;57183;50.930;5.406;2022-09-03T06:43:39;3.33;;;1.85;;
69900;SDS011;57183;50.930;5.406;2022-09-03T06:46:10;4.75;;;1.80;;
69900;SDS011;57183;50.930;5.406;2022-09-03T06:48:38;4.75;;;1.85;;
69900;SDS011;57183;50.930;5.406;2022-09-03T06:51:15;2.88;;;1.95;;
69900;SDS011;57183;50.930;5.406;2022-09-03T06:53:43;4.07;;;1.95;;
69900;SDS011;57183;50.930;5.406;2022-09-03T06:56:14;6.13;;;2.00;;
69900;SDS011;57183;50.930;5.406;2022-09-03T06:58:42;4.18;;;2.42;;
69900;SDS011;57183;50.930;5.406;2022-09-03T07:03:40;5.32;;;2.20;;
69900;SDS011;57183;50.930;5.406;2022-09-03T07:06:08;5.82;;;2.17;;
69900;SDS011;57183;50.930;5.406;2022-09-03T07:08:36;5.35;;;2.25;;
69900;SDS011;57183;50.930;5.406;2022-09-03T07:11:02;3.25;;;1.90;;
69900;SDS011;57183;50.930;5.406;2022-09-03T07:13:35;5.70;;;2.08;;
69900;SDS011;57183;50.930;5.406;2022-09-03T07:16:07;5.43;;;1.92;;
69900;SDS011;57183;50.930;5.406;2022-09-03T07:18:37;2.65;;;1.73;;
69900;SDS011;57183;50.930;5.406;2022-09-03T07:21:07;6.03;;;1.73;;
69900;SDS011;57183;50.930;5.406;2022-09-03T07:23:35;5.05;;;2.00;;
69900;SDS011;57183;50.930;5.406;2022-09-03T07:26:09;3.88;;;1.30;;
69900;SDS011;57183;50.930;5.406;2022-09-03T07:28:40;1.83;;;1.40;;
69900;SDS011;57183;50.930;5.406;2022-09-03T07:31:08;2.70;;;1.67;;
69900;SDS011;57183;50.930;5.406;2022-09-03T07:33:36;2.65;;;1.48;;
69900;SDS011;57183;50.930;5.406;2022-09-03T07:36:03;4.55;;;1.10;;
69900;SDS011;57183;50.930;5.406;2022-09-03T07:38:31;3.50;;;1.13;;
69900;SDS011;57183;50.930;5.406;2022-09-03T07:40:58;4.78;;;1.30;;
69900;SDS011;57183;50.930;5.406;2022-09-03T07:43:28;10.15;;;1.27;;
69900;SDS011;57183;50.930;5.406;2022-09-03T07:45:57;3.13;;;1.35;;
69900;SDS011;57183;50.930;5.406;2022-09-03T07:48:23;4.05;;;1.40;;
69900;SDS011;57183;50.930;5.406;2022-09-03T07:50:49;2.67;;;1.20;;
69900;SDS011;57183;50.930;5.406;2022-09-03T07:53:15;1.67;;;0.90;;
69900;SDS011;57183;50.930;5.406;2022-09-03T07:55:42;1.92;;;0.98;;
69900;SDS011;57183;50.930;5.406;2022-09-03T07:58:09;2.25;;;1.17;;
69900;SDS011;57183;50.930;5.406;2022-09-03T08:00:38;5.38;;;1.90;;
69900;SDS011;57183;50.930;5.406;2022-09-03T08:03:04;2.92;;;1.55;;
69900;SDS011;57183;50.930;5.406;2022-09-03T08:05:33;2.22;;;1.10;;
69900;SDS011;57183;50.930;5.406;2022-09-03T08:08:01;2.42;;;1.00;;
69900;SDS011;57183;50.930;5.406;2022-09-03T08:10:27;3.42;;;1.00;;
69900;SDS011;57183;50.930;5.406;2022-09-03T08:12:58;5.53;;;1.08;;
69900;SDS011;57183;50.930;5.406;2022-09-03T08:15:25;1.77;;;1.13;;
69900;SDS011;57183;50.930;5.406;2022-09-03T08:17:51;3.42;;;1.15;;
69900;SDS011;57183;50.930;5.406;2022-09-03T08:20:17;3.58;;;1.10;;
69900;SDS011;57183;50.930;5.406;2022-09-03T08:22:43;1.48;;;1.15;;
69900;SDS011;57183;50.930;5.406;2022-09-03T08:25:09;2.72;;;0.95;;
69900;SDS011;57183;50.930;5.406;2022-09-03T08:27:34;3.17;;;1.10;;
69900;SDS011;57183;50.930;5.406;2022-09-03T08:30:00;4.68;;;1.30;;
69900;SDS011;57183;50.930;5.406;2022-09-03T08:32:28;4.20;;;1.38;;
69900;SDS011;57183;50.930;5.406;2022-09-03T08:34:53;2.15;;;1.25;;
69900;SDS011;57183;50.930;5.406;2022-09-03T08:37:19;2.30;;;1.33;;
69900;SDS011;57183;50.930;5.406;2022-09-03T08:39:45;4.25;;;1.48;;
69900;SDS011;57183;50.930;5.406;2022-09-03T08:45:11;4.97;;;1.42;;
69900;SDS011;57183;50.930;5.406;2022-09-03T08:47:47;3.72;;;1.58;;
69900;SDS011;57183;50.930;5.406;2022-09-03T08:50:24;2.08;;;1.58;;
69900;SDS011;57183;50.930;5.406;2022-09-03T08:53:14;2.97;;;1.50;;
69900;SDS011;57183;50.930;5.406;2022-09-03T08:55:56;2.40;;;1.73;;
69900;SDS011;57183;50.930;5.406;2022-09-03T08:58:28;3.55;;;1.88;;
69900;SDS011;57183;50.930;5.406;2022-09-03T09:08:52;6.72;;;1.40;;
69900;SDS011;57183;50.930;5.406;2022-09-03T09:14:00;5.55;;;1.88;;
69900;SDS011;57183;50.930;5.406;2022-09-03T09:16:47;2.22;;;1.88;;
69900;SDS011;57183;50.930;5.406;2022-09-03T09:22:02;3.88;;;1.90;;
69900;SDS011;57183;50.930;5.406;2022-09-03T09:24:36;4.07;;;1.92;;
69900;SDS011;57183;50.930;5.406;2022-09-03T09:27:08;2.17;;;1.50;;
69900;SDS011;57183;50.930;5.406;2022-09-03T09:29:41;2.40;;;2.05;;
69900;SDS011;57183;50.930;5.406;2022-09-03T09:32:10;4.20;;;1.30;;
69900;SDS011;57183;50.930;5.406;2022-09-03T09:34:38;1.45;;;1.35;;
69900;SDS011;57183;50.930;5.406;2022-09-03T09:37:08;1.85;;;1.70;;
69900;SDS011;57183;50.930;5.406;2022-09-03T09:39:37;1.70;;;1.60;;
69900;SDS011;57183;50.930;5.406;2022-09-03T09:42:04;3.42;;;2.17;;
69900;SDS011;57183;50.930;5.406;2022-09-03T09:44:33;5.57;;;2.17;;
69900;SDS011;57183;50.930;5.406;2022-09-03T09:47:05;4.03;;;2.10;;
69900;SDS011;57183;50.930;5.406;2022-09-03T09:49:42;4.40;;;2.20;;
69900;SDS011;57183;50.930;5.406;2022-09-03T09:52:17;2.33;;;1.98;;
69900;SDS011;57183;50.930;5.406;2022-09-03T09:54:46;2.70;;;1.52;;
69900;SDS011;57183;50.930;5.406;2022-09-03T09:57:22;3.33;;;2.00;;
69900;SDS011;57183;50.930;5.406;2022-09-03T09:59:49;4.70;;;1.95;;
69900;SDS011;57183;50.930;5.406;2022-09-03T10:02:26;3.05;;;1.90;;
69900;SDS011;57183;50.930;5.406;2022-09-03T10:05:26;4.53;;;1.80;;
69900;SDS011;57183;50.930;5.406;2022-09-03T10:07:54;3.25;;;1.75;;
69900;SDS011;57183;50.930;5.406;2022-09-03T10:10:25;5.53;;;2.83;;
69900;SDS011;57183;50.930;5.406;2022-09-03T10:13:00;2.67;;;1.50;;
69900;SDS011;57183;50.930;5.406;2022-09-03T10:18:21;4.68;;;1.58;;
69900;SDS011;57183;50.930;5.406;2022-09-03T10:21:11;2.30;;;1.55;;
69900;SDS011;57183;50.930;5.406;2022-09-03T10:23:55;3.90;;;1.67;;
69900;SDS011;57183;50.930;5.406;2022-09-03T10:26:22;1.90;;;1.80;;
69900;SDS011;57183;50.930;5.406;2022-09-03T10:28:59;4.30;;;1.58;;
69900;SDS011;57183;50.930;5.406;2022-09-03T10:34:30;1.77;;;1.50;;
69900;SDS011;57183;50.930;5.406;2022-09-03T10:45:18;1.40;;;1.30;;
69900;SDS011;57183;50.930;5.406;2022-09-03T10:50:48;3.00;;;1.60;;
69900;SDS011;57183;50.930;5.406;2022-09-03T10:53:37;2.53;;;1.60;;
69900;SDS011;57183;50.930;5.406;2022-09-03T11:01:33;2.83;;;1.70;;
69900;SDS011;57183;50.930;5.406;2022-09-03T11:06:45;3.38;;;1.70;;
69900;SDS011;57183;50.930;5.406;2022-09-03T11:09:23;2.08;;;1.55;;
69900;SDS011;57183;50.930;5.406;2022-09-03T11:11:59;2.25;;;1.73;;
69900;SDS011;57183;50.930;5.406;2022-09-03T11:14:33;2.05;;;1.83;;
69900;SDS011;57183;50.930;5.406;2022-09-03T11:17:06;1.73;;;1.63;;
69900;SDS011;57183;50.930;5.406;2022-09-03T11:19:41;2.85;;;1.58;;
69900;SDS011;57183;50.930;5.406;2022-09-03T11:22:14;1.60;;;1.50;;
69900;SDS011;57183;50.930;5.406;2022-09-03T11:24:42;3.60;;;1.70;;
69900;SDS011;57183;50.930;5.406;2022-09-03T11:30:02;4.13;;;1.85;;
69900;SDS011;57183;50.930;5.406;2022-09-03T11:37:51;2.10;;;1.90;;
69900;SDS011;57183;50.930;5.406;2022-09-03T11:40:32;2.00;;;1.70;;
69900;SDS011;57183;50.930;5.406;2022-09-03T11:43:13;2.95;;;1.70;;
69900;SDS011;57183;50.930;5.406;2022-09-03T11:46:05;1.95;;;1.85;;
69900;SDS011;57183;50.930;5.406;2022-09-03T11:51:18;2.42;;;1.95;;
69900;SDS011;57183;50.930;5.406;2022-09-03T11:56:28;2.00;;;1.55;;
69900;SDS011;57183;50.930;5.406;2022-09-03T11:58:58;2.25;;;1.90;;
69900;SDS011;57183;50.930;5.406;2022-09-03T12:01:31;1.80;;;1.63;;
69900;SDS011;57183;50.930;5.406;2022-09-03T12:04:00;3.30;;;2.30;;
69900;SDS011;57183;50.930;5.406;2022-09-03T12:18:12;1.92;;;1.77;;
69900;SDS011;57183;50.930;5.406;2022-09-03T12:23:28;3.55;;;1.90;;
69900;SDS011;57183;50.930;5.406;2022-09-03T12:26:07;2.05;;;1.55;;
69900;SDS011;57183;50.930;5.406;2022-09-03T12:28:39;2.03;;;1.63;;
69900;SDS011;57183;50.930;5.406;2022-09-03T12:34:09;3.38;;;1.80;;
69900;SDS011;57183;50.930;5.406;2022-09-03T12:36:43;5.35;;;2.22;;
69900;SDS011;57183;50.930;5.406;2022-09-03T12:39:25;3.30;;;1.70;;
69900;SDS011;57183;50.930;5.406;2022-09-03T12:44:25;2.40;;;1.83;;
69900;SDS011;57183;50.930;5.406;2022-09-03T12:49:35;3.42;;;1.58;;
69900;SDS011;57183;50.930;5.406;2022-09-03T12:57:48;4.82;;;1.95;;
69900;SDS011;57183;50.930;5.406;2022-09-03T13:00:17;3.13;;;1.63;;
69900;SDS011;57183;50.930;5.406;2022-09-03T13:02:45;5.05;;;1.77;;
69900;SDS011;57183;50.930;5.406;2022-09-03T13:05:24;4.07;;;1.80;;
69900;SDS011;57183;50.930;5.406;2022-09-03T13:08:07;2.10;;;1.75;;
69900;SDS011;57183;50.930;5.406;2022-09-03T13:10:39;1.95;;;1.75;;
69900;SDS011;57183;50.930;5.406;2022-09-03T13:13:28;2.55;;;1.75;;
69900;SDS011;57183;50.930;5.406;2022-09-03T13:16:05;2.15;;;1.95;;
69900;SDS011;57183;50.930;5.406;2022-09-03T13:35:29;4.22;;;1.70;;
69900;SDS011;57183;50.930;5.406;2022-09-03T13:43:41;1.60;;;1.50;;
69900;SDS011;57183;50.930;5.406;2022-09-03T13:46:19;1.90;;;1.42;;
69900;SDS011;57183;50.930;5.406;2022-09-03T13:48:50;3.70;;;1.40;;
69900;SDS011;57183;50.930;5.406;2022-09-03T13:52:07;1.58;;;1.48;;
69900;SDS011;57183;50.930;5.406;2022-09-03T13:54:51;1.50;;;1.40;;
69900;SDS011;57183;50.930;5.406;2022-09-03T13:57:33;2.17;;;1.50;;
69900;SDS011;57183;50.930;5.406;2022-09-03T14:00:09;7.10;;;1.60;;
69900;SDS011;57183;50.930;5.406;2022-09-03T14:02:53;2.20;;;1.13;;
69900;SDS011;57183;50.930;5.406;2022-09-03T14:22:04;2.65;;;1.73;;
69900;SDS011;57183;50.930;5.406;2022-09-03T14:25:00;3.17;;;1.80;;
69900;SDS011;57183;50.930;5.406;2022-09-03T14:27:30;2.63;;;2.40;;
69900;SDS011;57183;50.930;5.406;2022-09-03T14:35:32;1.83;;;1.58;;
69900;SDS011;57183;50.930;5.406;2022-09-03T15:08:06;6.95;;;3.97;;
69900;SDS011;57183;50.930;5.406;2022-09-03T15:10:54;6.85;;;3.38;;
69900;SDS011;57183;50.930;5.406;2022-09-03T15:21:51;5.53;;;3.17;;
69900;SDS011;57183;50.930;5.406;2022-09-03T15:27:30;5.32;;;3.60;;
69900;SDS011;57183;50.930;5.406;2022-09-03T15:30:12;8.50;;;3.70;;
69900;SDS011;57183;50.930;5.406;2022-09-03T15:32:47;4.72;;;4.13;;
69900;SDS011;57183;50.930;5.406;2022-09-03T15:37:56;3.70;;;3.05;;
69900;SDS011;57183;50.930;5.406;2022-09-03T15:40:28;5.82;;;2.88;;
69900;SDS011;57183;50.930;5.406;2022-09-03T15:48:32;5.47;;;2.55;;
69900;SDS011;57183;50.930;5.406;2022-09-03T15:51:27;3.65;;;2.45;;
69900;SDS011;57183;50.930;5.406;2022-09-03T15:56:57;3.45;;;2.10;;
69900;SDS011;57183;50.930;5.406;2022-09-03T15:59:40;2.55;;;2.35;;
69900;SDS011;57183;50.930;5.406;2022-09-03T16:02:22;2.72;;;2.53;;
69900;SDS011;57183;50.930;5.406;2022-09-03T16:12:35;3.55;;;2.55;;
69900;SDS011;57183;50.930;5.406;2022-09-03T16:15:10;7.50;;;2.85;;
69900;SDS011;57183;50.930;5.406;2022-09-03T16:20:37;3.65;;;2.70;;
69900;SDS011;57183;50.930;5.406;2022-09-03T16:28:15;6.28;;;2.83;;
69900;SDS011;57183;50.930;5.406;2022-09-03T16:41:51;3.65;;;2.45;;
69900;SDS011;57183;50.930;5.406;2022-09-03T16:53:09;3.47;;;1.98;;
69900;SDS011;57183;50.930;5.406;2022-09-03T16:58:18;9.57;;;2.30;;
69900;SDS011;57183;50.930;5.406;2022-09-03T17:19:42;3.15;;;2.25;;
69900;SDS011;57183;50.930;5.406;2022-09-03T17:22:37;3.58;;;2.13;;
69900;SDS011;57183;50.930;5.406;2022-09-03T17:33:54;4.22;;;2.30;;
69900;SDS011;57183;50.930;5.406;2022-09-03T17:36:25;4.70;;;2.58;;
69900;SDS011;57183;50.930;5.406;2022-09-03T17:42:03;2.53;;;2.33;;
69900;SDS011;57183;50.930;5.406;2022-09-03T17:50:23;2.88;;;1.88;;
69900;SDS011;57183;50.930;5.406;2022-09-03T17:53:02;2.50;;;2.30;;
69900;SDS011;57183;50.930;5.406;2022-09-03T17:55:41;3.53;;;2.33;;
69900;SDS011;57183;50.930;5.406;2022-09-03T17:58:28;3.05;;;2.10;;
69900;SDS011;57183;50.930;5.406;2022-09-03T18:01:17;4.95;;;2.33;;
69900;SDS011;57183;50.930;5.406;2022-09-03T18:03:54;4.85;;;2.58;;
69900;SDS011;57183;50.930;5.406;2022-09-03T18:06:56;4.43;;;2.35;;
69900;SDS011;57183;50.930;5.406;2022-09-03T18:15:35;2.67;;;2.47;;
69900;SDS011;57183;50.930;5.406;2022-09-03T18:18:11;3.20;;;2.65;;
69900;SDS011;57183;50.930;5.406;2022-09-03T18:20:46;2.75;;;2.55;;
69900;SDS011;57183;50.930;5.406;2022-09-03T18:23:46;4.57;;;3.00;;
69900;SDS011;57183;50.930;5.406;2022-09-03T18:26:49;2.58;;;2.20;;
69900;SDS011;57183;50.930;5.406;2022-09-03T18:32:45;3.20;;;2.42;;
69900;SDS011;57183;50.930;5.406;2022-09-03T18:35:30;2.88;;;2.47;;
69900;SDS011;57183;50.930;5.406;2022-09-03T18:38:17;4.53;;;2.55;;
69900;SDS011;57183;50.930;5.406;2022-09-03T18:44:55;4.22;;;2.90;;
69900;SDS011;57183;50.930;5.406;2022-09-03T18:51:11;4.00;;;2.47;;
69900;SDS011;57183;50.930;5.406;2022-09-03T18:54:11;3.50;;;2.30;;
69900;SDS011;57183;50.930;5.406;2022-09-03T18:57:21;5.50;;;2.63;;
69900;SDS011;57183;50.930;5.406;2022-09-03T19:00:22;3.55;;;2.40;;
69900;SDS011;57183;50.930;5.406;2022-09-03T19:06:17;4.32;;;2.58;;
69900;SDS011;57183;50.930;5.406;2022-09-03T19:24:16;3.33;;;2.35;;
69900;SDS011;57183;50.930;5.406;2022-09-03T19:30:08;2.65;;;2.30;;
69900;SDS011;57183;50.930;5.406;2022-09-03T19:33:12;2.80;;;2.60;;
69900;SDS011;57183;50.930;5.406;2022-09-03T19:42:24;5.18;;;2.20;;
69900;SDS011;57183;50.930;5.406;2022-09-03T19:45:18;3.78;;;1.80;;
69900;SDS011;57183;50.930;5.406;2022-09-03T19:48:19;2.63;;;1.73;;
69900;SDS011;57183;50.930;5.406;2022-09-03T19:54:23;3.30;;;1.90;;
69900;SDS011;57183;50.930;5.406;2022-09-03T19:57:10;3.85;;;1.95;;
69900;SDS011;57183;50.930;5.406;2022-09-03T19:59:56;1.73;;;1.63;;
69900;SDS011;57183;50.930;5.406;2022-09-03T20:02:41;2.28;;;1.90;;
69900;SDS011;57183;50.930;5.406;2022-09-03T20:05:30;3.30;;;2.05;;
69900;SDS011;57183;50.930;5.406;2022-09-03T20:11:00;3.17;;;2.17;;
69900;SDS011;57183;50.930;5.406;2022-09-03T20:13:28;2.50;;;2.30;;
69900;SDS011;57183;50.930;5.406;2022-09-03T20:16:23;2.30;;;1.75;;
69900;SDS011;57183;50.930;5.406;2022-09-03T20:31:05;2.40;;;2.20;;
69900;SDS011;57183;50.930;5.406;2022-09-03T20:36:37;3.08;;;1.60;;
69900;SDS011;57183;50.930;5.406;2022-09-03T20:39:41;4.50;;;2.30;;
69900;SDS011;57183;50.930;5.406;2022-09-03T20:44:51;3.90;;;2.22;;
69900;SDS011;57183;50.930;5.406;2022-09-03T20:47:27;5.05;;;1.95;;
69900;SDS011;57183;50.930;5.406;2022-09-03T20:50:14;5.55;;;2.15;;
69900;SDS011;57183;50.930;5.406;2022-09-03T21:01:28;2.22;;;2.08;;
69900;SDS011;57183;50.930;5.406;2022-09-03T21:04:01;3.45;;;2.45;;
69900;SDS011;57183;50.930;5.406;2022-09-03T21:07:01;2.40;;;2.08;;
69900;SDS011;57183;50.930;5.406;2022-09-03T21:09:36;2.40;;;2.20;;
69900;SDS011;57183;50.930;5.406;2022-09-03T21:15:06;2.90;;;1.95;;
69900;SDS011;57183;50.930;5.406;2022-09-03T21:17:44;4.07;;;2.10;;
69900;SDS011;57183;50.930;5.406;2022-09-03T21:23:27;3.25;;;2.42;;
69900;SDS011;57183;50.930;5.406;2022-09-03T21:26:01;3.88;;;2.38;;
69900;SDS011;57183;50.930;5.406;2022-09-03T21:31:30;2.90;;;2.20;;
69900;SDS011;57183;50.930;5.406;2022-09-03T21:34:06;3.80;;;2.92;;
69900;SDS011;57183;50.930;5.406;2022-09-03T21:36:35;3.10;;;2.55;;
69900;SDS011;57183;50.930;5.406;2022-09-03T21:39:14;3.85;;;2.78;;
69900;SDS011;57183;50.930;5.406;2022-09-03T21:47:09;3.20;;;2.83;;
69900;SDS011;57183;50.930;5.406;2022-09-03T21:49:42;3.90;;;3.08;;
69900;SDS011;57183;50.930;5.406;2022-09-03T21:52:46;4.35;;;3.38;;
69900;SDS011;57183;50.930;5.406;2022-09-03T22:00:53;3.45;;;2.80;;
69900;SDS011;57183;50.930;5.406;2022-09-03T22:03:24;6.10;;;2.50;;
69900;SDS011;57183;50.930;5.406;2022-09-03T22:11:18;3.65;;;3.22;;
69900;SDS011;57183;50.930;5.406;2022-09-03T22:16:26;3.60;;;3.25;;
69900;SDS011;57183;50.930;5.406;2022-09-03T22:18:59;5.28;;;3.15;;
69900;SDS011;57183;50.930;5.406;2022-09-03T22:30:07;5.22;;;3.08;;